Eltopia, Washington
Current Conditions -  °F | °C
As of 1:53 PM on Friday 24 Oct 2014 (Local Time) from KPSC Reporting Station
Few Clouds Few Clouds  
Wind Chill: 59°   Ceiling: Unl
Heat Index: 59°   Visibility: 10mi
Dew Point: 48°   Wind: 6mph
Humidity: 67%   Direction: 330°NNW
Pressure: 30.03"   Gusts: NA
Location:  46.46°N, 119.02°W
Report Text: KPSC 242053Z 33005KT 10SM FEW100 15/09 A3003 RMK AO2 SLP169 T01500089 58016
Loading
Personal Weather Stations






























Interactive Weather Map
Tropical Storm Tracking
New forecast layout! Learn more

10-Day Weather Forecast

Advertisements
Track Severe Weather on mobile